sensor_id;sensor_type;location;lat;lon;timestamp;pressure;altitude;pressure_sealevel;temperature;humidity
80945;BME280;70400;50.934;11.590;2023-08-20T00:00:17;100407.78;;;24.14;74.68
80945;BME280;70400;50.934;11.590;2023-08-20T00:01:12;100409.91;;;24.12;75.00
80945;BME280;70400;50.934;11.590;2023-08-20T00:02:07;100412.81;;;24.11;74.85
80945;BME280;70400;50.934;11.590;2023-08-20T00:03:03;100411.34;;;24.15;74.85
80945;BME280;70400;50.934;11.590;2023-08-20T00:03:57;100407.69;;;24.27;74.40
80945;BME280;70400;50.934;11.590;2023-08-20T00:04:48;100410.00;;;24.42;74.07
80945;BME280;70400;50.934;11.590;2023-08-20T00:05:39;100415.34;;;24.49;73.29
80945;BME280;70400;50.934;11.590;2023-08-20T00:06:30;100411.03;;;24.41;73.58
80945;BME280;70400;50.934;11.590;2023-08-20T00:07:22;100413.72;;;24.23;74.11
80945;BME280;70400;50.934;11.590;2023-08-20T00:08:12;100415.66;;;24.16;74.57
80945;BME280;70400;50.934;11.590;2023-08-20T00:09:03;100411.84;;;24.23;74.18
80945;BME280;70400;50.934;11.590;2023-08-20T00:09:57;100418.22;;;24.29;74.03
80945;BME280;70400;50.934;11.590;2023-08-20T00:10:48;100416.75;;;24.33;74.39
80945;BME280;70400;50.934;11.590;2023-08-20T00:11:38;100418.81;;;24.31;73.97
80945;BME280;70400;50.934;11.590;2023-08-20T00:12:30;100422.22;;;24.45;73.69
80945;BME280;70400;50.934;11.590;2023-08-20T00:13:21;100417.31;;;24.60;72.83
80945;BME280;70400;50.934;11.590;2023-08-20T00:14:16;100427.13;;;24.73;72.37
80945;BME280;70400;50.934;11.590;2023-08-20T00:15:07;100421.88;;;24.78;72.37
80945;BME280;70400;50.934;11.590;2023-08-20T00:15:58;100429.81;;;24.73;72.38
80945;BME280;70400;50.934;11.590;2023-08-20T00:16:49;100430.09;;;24.65;72.61
80945;BME280;70400;50.934;11.590;2023-08-20T00:17:40;100436.25;;;24.72;72.18
80945;BME280;70400;50.934;11.590;2023-08-20T00:18:32;100435.88;;;24.68;72.23
80945;BME280;70400;50.934;11.590;2023-08-20T00:19:25;100435.22;;;24.73;72.02
80945;BME280;70400;50.934;11.590;2023-08-20T00:20:16;100441.28;;;24.68;72.15
80945;BME280;70400;50.934;11.590;2023-08-20T00:21:08;100439.63;;;24.67;72.05
80945;BME280;70400;50.934;11.590;2023-08-20T00:22:01;100448.56;;;24.68;71.54
80945;BME280;70400;50.934;11.590;2023-08-20T00:22:52;100451.56;;;24.78;72.04
80945;BME280;70400;50.934;11.590;2023-08-20T00:23:43;100444.88;;;24.81;71.95
80945;BME280;70400;50.934;11.590;2023-08-20T00:24:34;100447.72;;;24.86;71.26
80945;BME280;70400;50.934;11.590;2023-08-20T00:25:25;100444.78;;;24.87;71.27
80945;BME280;70400;50.934;11.590;2023-08-20T00:26:16;100446.81;;;24.74;71.92
80945;BME280;70400;50.934;11.590;2023-08-20T00:27:07;100439.38;;;24.87;71.14
80945;BME280;70400;50.934;11.590;2023-08-20T00:27:58;100445.09;;;24.79;71.12
80945;BME280;70400;50.934;11.590;2023-08-20T00:28:49;100433.03;;;24.82;70.98
80945;BME280;70400;50.934;11.590;2023-08-20T00:29:40;100441.19;;;24.75;71.22
80945;BME280;70400;50.934;11.590;2023-08-20T00:30:30;100445.41;;;24.71;71.72
80945;BME280;70400;50.934;11.590;2023-08-20T00:31:21;100440.31;;;24.63;71.79
80945;BME280;70400;50.934;11.590;2023-08-20T00:32:14;100435.28;;;24.48;72.40
80945;BME280;70400;50.934;11.590;2023-08-20T00:33:06;100439.63;;;24.49;72.51
80945;BME280;70400;50.934;11.590;2023-08-20T00:33:57;100439.25;;;24.45;72.32
80945;BME280;70400;50.934;11.590;2023-08-20T00:34:57;100438.59;;;24.50;72.61
80945;BME280;70400;50.934;11.590;2023-08-20T00:35:47;100432.75;;;24.53;72.29
80945;BME280;70400;50.934;11.590;2023-08-20T00:36:38;100433.91;;;24.57;72.00
80945;BME280;70400;50.934;11.590;2023-08-20T00:37:30;100434.84;;;24.51;72.54
80945;BME280;70400;50.934;11.590;2023-08-20T00:38:22;100434.09;;;24.37;72.89
80945;BME280;70400;50.934;11.590;2023-08-20T00:39:13;100427.38;;;24.28;73.10
80945;BME280;70400;50.934;11.590;2023-08-20T00:40:05;100432.63;;;24.41;72.57
80945;BME280;70400;50.934;11.590;2023-08-20T00:40:58;100433.88;;;24.45;72.33
80945;BME280;70400;50.934;11.590;2023-08-20T00:41:50;100431.16;;;24.45;72.75
80945;BME280;70400;50.934;11.590;2023-08-20T00:42:40;100429.72;;;24.43;72.76
80945;BME280;70400;50.934;11.590;2023-08-20T00:43:31;100429.06;;;24.47;72.58
80945;BME280;70400;50.934;11.590;2023-08-20T00:44:22;100428.66;;;24.44;72.56
80945;BME280;70400;50.934;11.590;2023-08-20T00:45:13;100436.13;;;24.42;72.61
80945;BME280;70400;50.934;11.590;2023-08-20T00:46:04;100432.09;;;24.33;73.03
80945;BME280;70400;50.934;11.590;2023-08-20T00:46:57;100431.56;;;24.42;73.36
80945;BME280;70400;50.934;11.590;2023-08-20T00:47:50;100438.47;;;24.38;73.09
80945;BME280;70400;50.934;11.590;2023-08-20T00:48:41;100434.84;;;24.26;73.40
80945;BME280;70400;50.934;11.590;2023-08-20T00:49:32;100437.09;;;24.29;73.75
80945;BME280;70400;50.934;11.590;2023-08-20T00:50:23;100431.38;;;24.19;73.83
80945;BME280;70400;50.934;11.590;2023-08-20T00:51:13;100434.91;;;24.19;73.55
80945;BME280;70400;50.934;11.590;2023-08-20T00:52:04;100430.13;;;24.21;73.74
80945;BME280;70400;50.934;11.590;2023-08-20T00:52:57;100436.78;;;24.19;73.84
80945;BME280;70400;50.934;11.590;2023-08-20T00:53:48;100436.41;;;24.15;74.10
80945;BME280;70400;50.934;11.590;2023-08-20T00:54:39;100440.22;;;24.26;73.65
80945;BME280;70400;50.934;11.590;2023-08-20T00:55:30;100440.59;;;24.30;73.65
80945;BME280;70400;50.934;11.590;2023-08-20T00:56:21;100440.50;;;24.43;73.14
80945;BME280;70400;50.934;11.590;2023-08-20T00:57:18;100446.50;;;24.45;73.18
80945;BME280;70400;50.934;11.590;2023-08-20T00:58:10;100447.00;;;24.35;73.50
80945;BME280;70400;50.934;11.590;2023-08-20T00:59:01;100442.47;;;24.29;73.74
80945;BME280;70400;50.934;11.590;2023-08-20T00:59:54;100440.22;;;24.26;73.66
80945;BME280;70400;50.934;11.590;2023-08-20T01:00:45;100445.25;;;24.22;73.78
80945;BME280;70400;50.934;11.590;2023-08-20T01:01:36;100441.13;;;24.20;73.96
80945;BME280;70400;50.934;11.590;2023-08-20T01:02:28;100441.72;;;24.22;73.85
80945;BME280;70400;50.934;11.590;2023-08-20T01:03:19;100441.28;;;24.25;73.88
80945;BME280;70400;50.934;11.590;2023-08-20T01:04:09;100444.41;;;24.22;73.52
80945;BME280;70400;50.934;11.590;2023-08-20T01:05:01;100448.59;;;24.18;73.70
80945;BME280;70400;50.934;11.590;2023-08-20T01:06:10;100438.84;;;24.17;73.95
80945;BME280;70400;50.934;11.590;2023-08-20T01:08:39;100441.28;;;24.25;73.45
80945;BME280;70400;50.934;11.590;2023-08-20T01:09:47;100443.75;;;24.26;73.38
80945;BME280;70400;50.934;11.590;2023-08-20T01:10:57;100442.94;;;24.26;73.49
80945;BME280;70400;50.934;11.590;2023-08-20T01:11:54;100440.41;;;24.31;73.64
80945;BME280;70400;50.934;11.590;2023-08-20T01:12:47;100444.47;;;24.40;73.17
80945;BME280;70400;50.934;11.590;2023-08-20T01:13:38;100441.16;;;24.38;73.22
80945;BME280;70400;50.934;11.590;2023-08-20T01:14:29;100442.03;;;24.32;73.56
80945;BME280;70400;50.934;11.590;2023-08-20T01:15:20;100440.75;;;24.35;73.74
80945;BME280;70400;50.934;11.590;2023-08-20T01:16:11;100438.63;;;24.43;73.63
80945;BME280;70400;50.934;11.590;2023-08-20T01:17:02;100440.75;;;24.35;73.54
80945;BME280;70400;50.934;11.590;2023-08-20T01:17:53;100444.16;;;24.30;73.44
80945;BME280;70400;50.934;11.590;2023-08-20T01:18:44;100444.16;;;24.30;73.55
80945;BME280;70400;50.934;11.590;2023-08-20T01:19:35;100438.81;;;24.23;74.07
80945;BME280;70400;50.934;11.590;2023-08-20T01:20:30;100446.22;;;24.28;73.67
80945;BME280;70400;50.934;11.590;2023-08-20T01:21:34;100446.06;;;24.23;73.78
80945;BME280;70400;50.934;11.590;2023-08-20T01:22:45;100449.25;;;24.13;74.51
80945;BME280;70400;50.934;11.590;2023-08-20T01:24:01;100448.56;;;23.99;74.88
80945;BME280;70400;50.934;11.590;2023-08-20T01:26:15;100447.06;;;24.03;74.67
80945;BME280;70400;50.934;11.590;2023-08-20T01:28:31;100450.00;;;24.02;74.66
80945;BME280;70400;50.934;11.590;2023-08-20T01:29:25;100457.84;;;24.03;74.62
80945;BME280;70400;50.934;11.590;2023-08-20T01:30:17;100451.03;;;24.01;74.65
80945;BME280;70400;50.934;11.590;2023-08-20T01:31:09;100454.97;;;23.98;74.90
80945;BME280;70400;50.934;11.590;2023-08-20T01:32:00;100450.03;;;23.95;74.73
80945;BME280;70400;50.934;11.590;2023-08-20T01:32:53;100449.44;;;23.93;74.78
80945;BME280;70400;50.934;11.590;2023-08-20T01:33:44;100455.63;;;23.94;75.01
80945;BME280;70400;50.934;11.590;2023-08-20T01:34:36;100449.22;;;23.95;74.60
80945;BME280;70400;50.934;11.590;2023-08-20T01:35:26;100453.28;;;24.04;74.16
80945;BME280;70400;50.934;11.590;2023-08-20T01:36:25;100452.91;;;24.00;74.71
80945;BME280;70400;50.934;11.590;2023-08-20T01:37:16;100448.13;;;24.02;74.57
80945;BME280;70400;50.934;11.590;2023-08-20T01:38:07;100455.59;;;24.00;74.63
80945;BME280;70400;50.934;11.590;2023-08-20T01:38:59;100457.69;;;23.98;74.49
80945;BME280;70400;50.934;11.590;2023-08-20T01:39:49;100458.25;;;24.07;74.59
80945;BME280;70400;50.934;11.590;2023-08-20T01:40:41;100447.88;;;24.04;74.72
80945;BME280;70400;50.934;11.590;2023-08-20T01:41:32;100452.25;;;24.05;74.78
80945;BME280;70400;50.934;11.590;2023-08-20T01:42:23;100454.22;;;24.16;74.26
80945;BME280;70400;50.934;11.590;2023-08-20T01:43:16;100455.63;;;24.19;74.44
80945;BME280;70400;50.934;11.590;2023-08-20T01:44:09;100454.03;;;24.11;74.27
80945;BME280;70400;50.934;11.590;2023-08-20T01:45:00;100459.69;;;24.10;74.61
80945;BME280;70400;50.934;11.590;2023-08-20T01:45:51;100457.63;;;24.05;75.00
80945;BME280;70400;50.934;11.590;2023-08-20T01:46:42;100460.03;;;24.13;74.48
80945;BME280;70400;50.934;11.590;2023-08-20T01:47:33;100462.53;;;24.15;74.87
80945;BME280;70400;50.934;11.590;2023-08-20T01:48:25;100470.94;;;24.00;75.49
80945;BME280;70400;50.934;11.590;2023-08-20T01:49:16;100466.81;;;23.97;75.31
80945;BME280;70400;50.934;11.590;2023-08-20T01:50:07;100470.97;;;23.93;75.32
80945;BME280;70400;50.934;11.590;2023-08-20T01:50:58;100474.16;;;23.83;76.01
80945;BME280;70400;50.934;11.590;2023-08-20T01:51:49;100468.72;;;23.90;75.65
80945;BME280;70400;50.934;11.590;2023-08-20T01:52:40;100470.00;;;23.88;76.00
80945;BME280;70400;50.934;11.590;2023-08-20T01:53:32;100477.63;;;23.91;75.33
80945;BME280;70400;50.934;11.590;2023-08-20T01:54:24;100472.72;;;23.81;75.69
80945;BME280;70400;50.934;11.590;2023-08-20T01:55:15;100471.69;;;23.82;75.46
80945;BME280;70400;50.934;11.590;2023-08-20T01:56:13;100469.38;;;23.86;75.40
80945;BME280;70400;50.934;11.590;2023-08-20T01:57:04;100472.47;;;23.89;75.70
80945;BME280;70400;50.934;11.590;2023-08-20T01:57:55;100464.81;;;23.86;75.60
80945;BME280;70400;50.934;11.590;2023-08-20T01:58:46;100465.25;;;23.83;75.59
80945;BME280;70400;50.934;11.590;2023-08-20T01:59:38;100474.72;;;23.92;75.31
80945;BME280;70400;50.934;11.590;2023-08-20T02:00:29;100467.75;;;23.85;75.56
80945;BME280;70400;50.934;11.590;2023-08-20T02:01:21;100476.03;;;23.83;75.24
80945;BME280;70400;50.934;11.590;2023-08-20T02:02:12;100478.91;;;23.88;75.37
80945;BME280;70400;50.934;11.590;2023-08-20T02:03:03;100474.56;;;23.87;75.67
80945;BME280;70400;50.934;11.590;2023-08-20T02:03:54;100479.94;;;23.87;75.40
80945;BME280;70400;50.934;11.590;2023-08-20T02:04:45;100478.09;;;23.88;75.31
80945;BME280;70400;50.934;11.590;2023-08-20T02:05:36;100477.91;;;23.82;75.26
80945;BME280;70400;50.934;11.590;2023-08-20T02:06:28;100482.19;;;23.90;74.70
80945;BME280;70400;50.934;11.590;2023-08-20T02:07:19;100484.28;;;23.88;74.81
80945;BME280;70400;50.934;11.590;2023-08-20T02:08:10;100486.38;;;23.86;74.92
80945;BME280;70400;50.934;11.590;2023-08-20T02:09:01;100474.56;;;23.87;74.49
80945;BME280;70400;50.934;11.590;2023-08-20T02:09:53;100479.34;;;23.85;74.81
80945;BME280;70400;50.934;11.590;2023-08-20T02:10:43;100480.16;;;23.86;74.44
80945;BME280;70400;50.934;11.590;2023-08-20T02:11:34;100479.88;;;23.94;74.42
80945;BME280;70400;50.934;11.590;2023-08-20T02:12:26;100480.28;;;23.97;74.58
80945;BME280;70400;50.934;11.590;2023-08-20T02:13:20;100481.94;;;23.98;74.61
80945;BME280;70400;50.934;11.590;2023-08-20T02:14:11;100477.88;;;23.89;75.01
80945;BME280;70400;50.934;11.590;2023-08-20T02:15:02;100488.50;;;23.77;75.65
80945;BME280;70400;50.934;11.590;2023-08-20T02:16:12;100481.91;;;23.73;76.23
80945;BME280;70400;50.934;11.590;2023-08-20T02:17:03;100478.19;;;23.74;76.35
80945;BME280;70400;50.934;11.590;2023-08-20T02:17:56;100478.13;;;23.81;76.20
80945;BME280;70400;50.934;11.590;2023-08-20T02:18:47;100481.81;;;23.87;75.82
80945;BME280;70400;50.934;11.590;2023-08-20T02:19:38;100482.56;;;23.94;75.45
80945;BME280;70400;50.934;11.590;2023-08-20T02:20:31;100487.81;;;23.89;76.39
80945;BME280;70400;50.934;11.590;2023-08-20T02:21:21;100486.81;;;23.83;76.53
80945;BME280;70400;50.934;11.590;2023-08-20T02:22:13;100476.03;;;23.83;76.39
80945;BME280;70400;50.934;11.590;2023-08-20T02:23:04;100481.03;;;23.79;76.71
80945;BME280;70400;50.934;11.590;2023-08-20T02:23:55;100484.19;;;23.76;76.63
80945;BME280;70400;50.934;11.590;2023-08-20T02:24:46;100491.84;;;23.73;75.31
80945;BME280;70400;50.934;11.590;2023-08-20T02:25:38;100487.69;;;23.77;76.47
80945;BME280;70400;50.934;11.590;2023-08-20T02:26:29;100487.28;;;23.73;76.86
80945;BME280;70400;50.934;11.590;2023-08-20T02:27:20;100496.78;;;23.76;77.01
80945;BME280;70400;50.934;11.590;2023-08-20T02:28:11;100491.03;;;23.72;77.12
80945;BME280;70400;50.934;11.590;2023-08-20T02:29:02;100492.88;;;23.72;77.03
80945;BME280;70400;50.934;11.590;2023-08-20T02:29:53;100502.63;;;23.73;76.98
80945;BME280;70400;50.934;11.590;2023-08-20T02:30:45;100500.53;;;23.68;77.07
80945;BME280;70400;50.934;11.590;2023-08-20T02:31:37;100493.00;;;23.83;77.31
80945;BME280;70400;50.934;11.590;2023-08-20T02:32:28;100497.84;;;23.75;77.23
80945;BME280;70400;50.934;11.590;2023-08-20T02:33:20;100490.47;;;23.57;77.52
80945;BME280;70400;50.934;11.590;2023-08-20T02:34:11;100496.31;;;23.54;77.81
80945;BME280;70400;50.934;11.590;2023-08-20T02:35:03;100504.38;;;23.54;77.35
80945;BME280;70400;50.934;11.590;2023-08-20T02:36:01;100505.63;;;23.51;77.36
80945;BME280;70400;50.934;11.590;2023-08-20T02:36:52;100500.81;;;23.60;77.37
80945;BME280;70400;50.934;11.590;2023-08-20T02:37:43;100508.31;;;23.51;78.19
80945;BME280;70400;50.934;11.590;2023-08-20T02:38:34;100501.28;;;23.50;78.24
80945;BME280;70400;50.934;11.590;2023-08-20T02:39:26;100505.19;;;23.54;78.12
80945;BME280;70400;50.934;11.590;2023-08-20T02:40:17;100495.94;;;23.44;78.79
80945;BME280;70400;50.934;11.590;2023-08-20T02:41:07;100496.59;;;23.39;78.75
80945;BME280;70400;50.934;11.590;2023-08-20T02:41:58;100505.28;;;23.41;78.85
80945;BME280;70400;50.934;11.590;2023-08-20T02:42:49;100500.72;;;23.35;78.94
80945;BME280;70400;50.934;11.590;2023-08-20T02:43:40;100504.09;;;23.24;79.51
80945;BME280;70400;50.934;11.590;2023-08-20T02:44:31;100498.97;;;23.15;80.14
80945;BME280;70400;50.934;11.590;2023-08-20T02:45:22;100500.44;;;23.11;80.13
80945;BME280;70400;50.934;11.590;2023-08-20T02:46:15;100499.00;;;23.02;80.70
80945;BME280;70400;50.934;11.590;2023-08-20T02:47:06;100503.16;;;22.98;80.90
80945;BME280;70400;50.934;11.590;2023-08-20T02:47:58;100506.06;;;23.03;80.75
80945;BME280;70400;50.934;11.590;2023-08-20T02:48:49;100497.34;;;23.01;80.83
80945;BME280;70400;50.934;11.590;2023-08-20T02:49:39;100503.75;;;23.07;80.65
80945;BME280;70400;50.934;11.590;2023-08-20T02:50:30;100506.03;;;22.96;81.17
80945;BME280;70400;50.934;11.590;2023-08-20T02:51:21;100508.56;;;22.98;81.10
80945;BME280;70400;50.934;11.590;2023-08-20T02:52:12;100504.63;;;23.01;80.73
80945;BME280;70400;50.934;11.590;2023-08-20T02:53:03;100507.91;;;23.03;80.92
80945;BME280;70400;50.934;11.590;2023-08-20T02:53:56;100511.19;;;23.05;80.60
80945;BME280;70400;50.934;11.590;2023-08-20T02:54:47;100510.81;;;23.08;80.42
80945;BME280;70400;50.934;11.590;2023-08-20T02:55:38;100514.75;;;23.05;80.53
80945;BME280;70400;50.934;11.590;2023-08-20T02:56:29;100513.06;;;23.04;80.92
80945;BME280;70400;50.934;11.590;2023-08-20T02:57:20;100512.63;;;23.14;80.52
80945;BME280;70400;50.934;11.590;2023-08-20T02:58:12;100507.03;;;23.15;80.13
80945;BME280;70400;50.934;11.590;2023-08-20T02:59:03;100509.06;;;23.20;79.91
80945;BME280;70400;50.934;11.590;2023-08-20T02:59:54;100511.38;;;23.16;80.58
80945;BME280;70400;50.934;11.590;2023-08-20T03:00:45;100520.31;;;23.10;80.58
80945;BME280;70400;50.934;11.590;2023-08-20T03:01:36;100519.00;;;23.19;80.22
80945;BME280;70400;50.934;11.590;2023-08-20T03:02:27;100520.69;;;23.21;80.21
80945;BME280;70400;50.934;11.590;2023-08-20T03:03:17;100519.25;;;23.18;80.52
80945;BME280;70400;50.934;11.590;2023-08-20T03:04:08;100521.72;;;23.19;80.59
80945;BME280;70400;50.934;11.590;2023-08-20T03:05:01;100519.66;;;23.15;80.57
80945;BME280;70400;50.934;11.590;2023-08-20T03:05:51;100517.19;;;23.07;80.81
80945;BME280;70400;50.934;11.590;2023-08-20T03:06:42;100519.50;;;23.03;81.10
80945;BME280;70400;50.934;11.590;2023-08-20T03:07:34;100512.44;;;23.02;81.29
80945;BME280;70400;50.934;11.590;2023-08-20T03:08:26;100517.00;;;23.02;81.38
80945;BME280;70400;50.934;11.590;2023-08-20T03:09:16;100518.88;;;23.01;81.57
80945;BME280;70400;50.934;11.590;2023-08-20T03:10:07;100523.84;;;23.04;81.03
80945;BME280;70400;50.934;11.590;2023-08-20T03:10:59;100518.03;;;23.07;81.05
80945;BME280;70400;50.934;11.590;2023-08-20T03:11:49;100517.81;;;23.15;80.79
80945;BME280;70400;50.934;11.590;2023-08-20T03:12:41;100524.22;;;23.14;80.17
80945;BME280;70400;50.934;11.590;2023-08-20T03:13:32;100521.31;;;23.16;80.22
80945;BME280;70400;50.934;11.590;2023-08-20T03:14:23;100517.81;;;23.15;80.24
80945;BME280;70400;50.934;11.590;2023-08-20T03:15:18;100520.50;;;23.15;80.14
80945;BME280;70400;50.934;11.590;2023-08-20T03:16:09;100520.69;;;23.21;79.97
80945;BME280;70400;50.934;11.590;2023-08-20T03:17:00;100518.22;;;23.12;80.20
80945;BME280;70400;50.934;11.590;2023-08-20T03:17:51;100523.78;;;23.17;80.27
80945;BME280;70400;50.934;11.590;2023-08-20T03:18:42;100523.56;;;23.19;79.92
80945;BME280;70400;50.934;11.590;2023-08-20T03:19:34;100519.63;;;23.22;80.09
80945;BME280;70400;50.934;11.590;2023-08-20T03:20:28;100527.91;;;23.20;80.15
80945;BME280;70400;50.934;11.590;2023-08-20T03:21:19;100522.59;;;23.07;80.59
80945;BME280;70400;50.934;11.590;2023-08-20T03:22:10;100525.28;;;23.07;80.77
80945;BME280;70400;50.934;11.590;2023-08-20T03:23:01;100524.06;;;23.03;81.06
80945;BME280;70400;50.934;11.590;2023-08-20T03:23:52;100522.81;;;23.05;80.87
80945;BME280;70400;50.934;11.590;2023-08-20T03:24:43;100524.63;;;23.11;80.61
80945;BME280;70400;50.934;11.590;2023-08-20T03:25:34;100526.47;;;23.17;80.39
80945;BME280;70400;50.934;11.590;2023-08-20T03:26:25;100519.63;;;23.22;80.39
80945;BME280;70400;50.934;11.590;2023-08-20T03:27:17;100525.84;;;23.22;80.30
80945;BME280;70400;50.934;11.590;2023-08-20T03:28:08;100528.56;;;23.15;80.59
80945;BME280;70400;50.934;11.590;2023-08-20T03:29:00;100530.66;;;23.07;81.08
80945;BME280;70400;50.934;11.590;2023-08-20T03:29:52;100529.03;;;22.99;81.11
80945;BME280;70400;50.934;11.590;2023-08-20T03:30:43;100528.81;;;23.01;81.39
80945;BME280;70400;50.934;11.590;2023-08-20T03:31:37;100527.75;;;23.08;80.99
80945;BME280;70400;50.934;11.590;2023-08-20T03:32:27;100528.16;;;23.12;80.73
80945;BME280;70400;50.934;11.590;2023-08-20T03:33:18;100531.28;;;23.09;81.21
80945;BME280;70400;50.934;11.590;2023-08-20T03:34:09;100531.72;;;22.92;81.67
80945;BME280;70400;50.934;11.590;2023-08-20T03:35:01;100529.47;;;22.83;82.15
80945;BME280;70400;50.934;11.590;2023-08-20T03:35:52;100530.06;;;22.85;82.03
80945;BME280;70400;50.934;11.590;2023-08-20T03:36:43;100534.41;;;22.79;82.46
80945;BME280;70400;50.934;11.590;2023-08-20T03:37:34;100531.91;;;22.91;81.69
80945;BME280;70400;50.934;11.590;2023-08-20T03:38:26;100538.75;;;23.00;81.24
80945;BME280;70400;50.934;11.590;2023-08-20T03:39:17;100543.28;;;22.93;81.74
80945;BME280;70400;50.934;11.590;2023-08-20T03:40:09;100540.41;;;23.01;81.45
80945;BME280;70400;50.934;11.590;2023-08-20T03:41:00;100538.34;;;23.03;81.03
80945;BME280;70400;50.934;11.590;2023-08-20T03:41:52;100541.22;;;23.08;80.82
80945;BME280;70400;50.934;11.590;2023-08-20T03:42:43;100537.47;;;23.16;80.58
80945;BME280;70400;50.934;11.590;2023-08-20T03:43:33;100538.91;;;23.12;80.76
80945;BME280;70400;50.934;11.590;2023-08-20T03:44:24;100539.34;;;23.09;81.21
80945;BME280;70400;50.934;11.590;2023-08-20T03:45:15;100537.50;;;22.96;81.57
80945;BME280;70400;50.934;11.590;2023-08-20T03:46:06;100540.19;;;22.96;81.45
80945;BME280;70400;50.934;11.590;2023-08-20T03:46:57;100537.28;;;22.84;82.01
80945;BME280;70400;50.934;11.590;2023-08-20T03:47:49;100542.72;;;22.78;82.25
80945;BME280;70400;50.934;11.590;2023-08-20T03:48:40;100536.91;;;22.81;82.13
80945;BME280;70400;50.934;11.590;2023-08-20T03:49:31;100540.03;;;22.78;82.55
80945;BME280;70400;50.934;11.590;2023-08-20T03:50:22;100542.28;;;22.74;82.49
80945;BME280;70400;50.934;11.590;2023-08-20T03:51:13;100538.56;;;22.68;82.73
80945;BME280;70400;50.934;11.590;2023-08-20T03:52:05;100541.47;;;22.73;82.60
80945;BME280;70400;50.934;11.590;2023-08-20T03:52:57;100542.72;;;22.71;82.68
80945;BME280;70400;50.934;11.590;2023-08-20T03:53:48;100550.16;;;22.75;82.29
80945;BME280;70400;50.934;11.590;2023-08-20T03:54:39;100543.72;;;22.76;82.27
80945;BME280;70400;50.934;11.590;2023-08-20T03:55:30;100551.41;;;22.73;82.69
80945;BME280;70400;50.934;11.590;2023-08-20T03:56:21;100541.88;;;22.70;82.89
80945;BME280;70400;50.934;11.590;2023-08-20T03:57:12;100549.94;;;22.70;82.90
80945;BME280;70400;50.934;11.590;2023-08-20T03:58:03;100551.78;;;22.76;82.31
80945;BME280;70400;50.934;11.590;2023-08-20T03:58:55;100550.16;;;22.69;82.46
80945;BME280;70400;50.934;11.590;2023-08-20T03:59:45;100549.56;;;22.60;82.87
80945;BME280;70400;50.934;11.590;2023-08-20T04:00:37;100553.06;;;22.54;83.60
80945;BME280;70400;50.934;11.590;2023-08-20T04:01:28;100553.28;;;22.46;83.75
80945;BME280;70400;50.934;11.590;2023-08-20T04:02:19;100562.59;;;22.37;84.17
80945;BME280;70400;50.934;11.590;2023-08-20T04:03:12;100555.78;;;22.34;84.14
80945;BME280;70400;50.934;11.590;2023-08-20T04:04:04;100558.44;;;22.47;83.80
80945;BME280;70400;50.934;11.590;2023-08-20T04:04:57;100557.63;;;22.47;83.44
80945;BME280;70400;50.934;11.590;2023-08-20T04:05:50;100559.28;;;22.48;83.08
80945;BME280;70400;50.934;11.590;2023-08-20T04:06:42;100566.72;;;22.46;83.18
80945;BME280;70400;50.934;11.590;2023-08-20T04:07:34;100562.78;;;22.35;83.17
80945;BME280;70400;50.934;11.590;2023-08-20T04:08:25;100563.41;;;22.37;83.14
80945;BME280;70400;50.934;11.590;2023-08-20T04:09:16;100563.41;;;22.30;83.40
80945;BME280;70400;50.934;11.590;2023-08-20T04:10:08;100567.56;;;22.26;83.67
80945;BME280;70400;50.934;11.590;2023-08-20T04:11:00;100564.44;;;22.29;83.74
80945;BME280;70400;50.934;11.590;2023-08-20T04:11:52;100565.28;;;22.37;83.09
80945;BME280;70400;50.934;11.590;2023-08-20T04:12:43;100562.78;;;22.35;83.36
80945;BME280;70400;50.934;11.590;2023-08-20T04:13:33;100569.63;;;22.44;83.72
80945;BME280;70400;50.934;11.590;2023-08-20T04:14:24;100559.06;;;22.43;82.84
80945;BME280;70400;50.934;11.590;2023-08-20T04:15:16;100558.84;;;22.51;83.43
80945;BME280;70400;50.934;11.590;2023-08-20T04:16:07;100559.47;;;22.60;83.29
80945;BME280;70400;50.934;11.590;2023-08-20T04:16:58;100557.19;;;22.63;83.11
80945;BME280;70400;50.934;11.590;2023-08-20T04:17:49;100554.50;;;22.57;82.92
80945;BME280;70400;50.934;11.590;2023-08-20T04:18:40;100546.47;;;22.50;83.06
80945;BME280;70400;50.934;11.590;2023-08-20T04:19:30;100560.13;;;22.42;83.52
80945;BME280;70400;50.934;11.590;2023-08-20T04:20:21;100565.50;;;22.42;83.64
80945;BME280;70400;50.934;11.590;2023-08-20T04:21:12;100557.41;;;22.48;83.58
80945;BME280;70400;50.934;11.590;2023-08-20T04:22:03;100562.59;;;22.37;83.90
80945;BME280;70400;50.934;11.590;2023-08-20T04:22:54;100560.50;;;22.25;84.46
80945;BME280;70400;50.934;11.590;2023-08-20T04:23:46;100554.72;;;22.22;84.31
80945;BME280;70400;50.934;11.590;2023-08-20T04:24:38;100552.84;;;22.22;84.36
80945;BME280;70400;50.934;11.590;2023-08-20T04:25:29;100556.81;;;22.26;84.47
80945;BME280;70400;50.934;11.590;2023-08-20T04:26:20;100555.34;;;22.37;83.99
80945;BME280;70400;50.934;11.590;2023-08-20T04:27:11;100551.00;;;22.43;83.72
80945;BME280;70400;50.934;11.590;2023-08-20T04:28:05;100554.09;;;22.46;83.23
80945;BME280;70400;50.934;11.590;2023-08-20T04:28:56;100561.75;;;22.49;83.15
80945;BME280;70400;50.934;11.590;2023-08-20T04:29:47;100567.53;;;22.46;83.40
80945;BME280;70400;50.934;11.590;2023-08-20T04:30:37;100559.66;;;22.51;82.96
80945;BME280;70400;50.934;11.590;2023-08-20T04:31:29;100560.53;;;22.52;82.57
80945;BME280;70400;50.934;11.590;2023-08-20T04:32:27;100566.28;;;22.56;82.32